sensor_id;sensor_type;location;lat;lon;timestamp;pressure;altitude;pressure_sealevel;temperature;humidity
66668;BME280;57205;51.438;-2.006;2023-03-16T00:00:54;100218.41;;;8.40;100.00
66668;BME280;57205;51.438;-2.006;2023-03-16T00:03:20;100218.41;;;8.40;100.00
66668;BME280;57205;51.438;-2.006;2023-03-16T00:05:46;100217.63;;;8.45;100.00
66668;BME280;57205;51.438;-2.006;2023-03-16T00:08:12;100218.19;;;8.47;100.00
66668;BME280;57205;51.438;-2.006;2023-03-16T00:10:38;100210.97;;;8.47;100.00
66668;BME280;57205;51.438;-2.006;2023-03-16T00:13:03;100207.53;;;8.52;100.00
66668;BME280;57205;51.438;-2.006;2023-03-16T00:15:28;100208.34;;;8.52;100.00
66668;BME280;57205;51.438;-2.006;2023-03-16T00:17:54;100201.13;;;8.53;100.00
66668;BME280;57205;51.438;-2.006;2023-03-16T00:20:19;100204.59;;;8.53;100.00
66668;BME280;57205;51.438;-2.006;2023-03-16T00:22:44;100193.41;;;8.51;100.00
66668;BME280;57205;51.438;-2.006;2023-03-16T00:25:10;100183.00;;;8.55;100.00
66668;BME280;57205;51.438;-2.006;2023-03-16T00:27:36;100174.47;;;8.53;100.00
66668;BME280;57205;51.438;-2.006;2023-03-16T00:30:02;100168.63;;;8.56;100.00
66668;BME280;57205;51.438;-2.006;2023-03-16T00:32:31;100164.88;;;8.57;100.00
66668;BME280;57205;51.438;-2.006;2023-03-16T00:34:57;100167.28;;;8.58;100.00
66668;BME280;57205;51.438;-2.006;2023-03-16T00:37:23;100161.94;;;8.58;100.00
66668;BME280;57205;51.438;-2.006;2023-03-16T00:39:49;100164.38;;;8.60;100.00
66668;BME280;57205;51.438;-2.006;2023-03-16T00:42:15;100151.81;;;8.60;100.00
66668;BME280;57205;51.438;-2.006;2023-03-16T00:44:41;100154.75;;;8.64;100.00
66668;BME280;57205;51.438;-2.006;2023-03-16T00:47:06;100138.25;;;8.62;100.00
66668;BME280;57205;51.438;-2.006;2023-03-16T00:49:32;100136.91;;;8.64;100.00
66668;BME280;57205;51.438;-2.006;2023-03-16T00:52:02;100140.13;;;8.66;100.00
66668;BME280;57205;51.438;-2.006;2023-03-16T00:54:29;100145.19;;;8.68;100.00
66668;BME280;57205;51.438;-2.006;2023-03-16T00:56:56;100136.41;;;8.67;100.00
66668;BME280;57205;51.438;-2.006;2023-03-16T00:59:22;100135.84;;;8.70;100.00
66668;BME280;57205;51.438;-2.006;2023-03-16T01:01:50;100130.78;;;8.69;100.00
66668;BME280;57205;51.438;-2.006;2023-03-16T01:04:16;100136.94;;;8.69;100.00
66668;BME280;57205;51.438;-2.006;2023-03-16T01:06:41;100124.91;;;8.67;100.00
66668;BME280;57205;51.438;-2.006;2023-03-16T01:09:07;100115.06;;;8.67;100.00
66668;BME280;57205;51.438;-2.006;2023-03-16T01:11:33;100114.53;;;8.70;100.00
66668;BME280;57205;51.438;-2.006;2023-03-16T01:13:59;100121.44;;;8.71;100.00
66668;BME280;57205;51.438;-2.006;2023-03-16T01:16:24;100110.78;;;8.71;100.00
66668;BME280;57205;51.438;-2.006;2023-03-16T01:18:50;100107.88;;;8.73;100.00
66668;BME280;57205;51.438;-2.006;2023-03-16T01:21:16;100110.00;;;8.76;100.00
66668;BME280;57205;51.438;-2.006;2023-03-16T01:23:42;100110.81;;;8.76;100.00
66668;BME280;57205;51.438;-2.006;2023-03-16T01:26:08;100116.16;;;8.76;100.00
66668;BME280;57205;51.438;-2.006;2023-03-16T01:28:34;100123.59;;;8.74;100.00
66668;BME280;57205;51.438;-2.006;2023-03-16T01:31:10;100112.94;;;8.74;100.00
66668;BME280;57205;51.438;-2.006;2023-03-16T01:33:36;100106.25;;;8.77;100.00
66668;BME280;57205;51.438;-2.006;2023-03-16T01:36:12;100104.13;;;8.79;100.00
66668;BME280;57205;51.438;-2.006;2023-03-16T01:38:37;100093.44;;;8.79;100.00
66668;BME280;57205;51.438;-2.006;2023-03-16T01:41:02;100095.88;;;8.80;100.00
66668;BME280;57205;51.438;-2.006;2023-03-16T01:43:29;100089.75;;;8.80;100.00
66668;BME280;57205;51.438;-2.006;2023-03-16T01:48:24;100089.75;;;8.80;100.00
66668;BME280;57205;51.438;-2.006;2023-03-16T01:50:50;100089.47;;;8.81;100.00
66668;BME280;57205;51.438;-2.006;2023-03-16T01:53:17;100090.81;;;8.84;100.00
66668;BME280;57205;51.438;-2.006;2023-03-16T01:55:42;100085.47;;;8.84;100.00
66668;BME280;57205;51.438;-2.006;2023-03-16T01:58:08;100089.72;;;8.85;100.00
66668;BME280;57205;51.438;-2.006;2023-03-16T02:00:33;100088.16;;;8.84;100.00
66668;BME280;57205;51.438;-2.006;2023-03-16T02:03:02;100076.13;;;8.81;100.00
66668;BME280;57205;51.438;-2.006;2023-03-16T02:07:54;100074.78;;;8.79;100.00
66668;BME280;57205;51.438;-2.006;2023-03-16T02:10:23;100072.91;;;8.79;100.00
66668;BME280;57205;51.438;-2.006;2023-03-16T02:12:49;100069.44;;;8.74;100.00
66668;BME280;57205;51.438;-2.006;2023-03-16T02:15:14;100066.25;;;8.72;100.00
66668;BME280;57205;51.438;-2.006;2023-03-16T02:17:40;100066.25;;;8.72;100.00
66668;BME280;57205;51.438;-2.006;2023-03-16T02:22:51;100066.25;;;8.72;100.00
66668;BME280;57205;51.438;-2.006;2023-03-16T02:25:23;100052.41;;;8.75;100.00
66668;BME280;57205;51.438;-2.006;2023-03-16T02:30:33;100047.84;;;8.70;100.00
66668;BME280;57205;51.438;-2.006;2023-03-16T02:32:59;100053.72;;;8.72;100.00
66668;BME280;57205;51.438;-2.006;2023-03-16T02:35:25;100053.19;;;8.75;100.00
66668;BME280;57205;51.438;-2.006;2023-03-16T02:37:50;100056.91;;;8.74;100.00
66668;BME280;57205;51.438;-2.006;2023-03-16T02:40:21;100057.97;;;8.73;100.00
66668;BME280;57205;51.438;-2.006;2023-03-16T02:43:00;100052.41;;;8.75;100.00
66668;BME280;57205;51.438;-2.006;2023-03-16T02:46:10;100053.72;;;8.77;100.00
66668;BME280;57205;51.438;-2.006;2023-03-16T02:48:19;100047.56;;;8.77;100.00
66668;BME280;57205;51.438;-2.006;2023-03-16T02:50:47;100039.84;;;8.75;100.00
66668;BME280;57205;51.438;-2.006;2023-03-16T02:53:13;100040.66;;;8.76;100.00
66668;BME280;57205;51.438;-2.006;2023-03-16T02:55:38;100036.13;;;8.76;100.00
66668;BME280;57205;51.438;-2.006;2023-03-16T02:58:03;100036.38;;;8.75;100.00
66668;BME280;57205;51.438;-2.006;2023-03-16T03:00:29;100030.25;;;8.74;100.00
66668;BME280;57205;51.438;-2.006;2023-03-16T03:02:54;100029.72;;;8.77;100.00
66668;BME280;57205;51.438;-2.006;2023-03-16T03:05:19;100036.13;;;8.76;100.00
66668;BME280;57205;51.438;-2.006;2023-03-16T03:07:45;100028.41;;;8.75;100.00
66668;BME280;57205;51.438;-2.006;2023-03-16T03:10:10;100022.78;;;8.76;100.00
66668;BME280;57205;51.438;-2.006;2023-03-16T03:12:36;100020.13;;;8.76;100.00
66668;BME280;57205;51.438;-2.006;2023-03-16T03:15:01;100027.84;;;8.73;100.00
66668;BME280;57205;51.438;-2.006;2023-03-16T03:17:26;100024.09;;;8.74;100.00
66668;BME280;57205;51.438;-2.006;2023-03-16T03:19:54;100021.97;;;8.76;100.00
66668;BME280;57205;51.438;-2.006;2023-03-16T03:22:19;100016.91;;;8.74;100.00
66668;BME280;57205;51.438;-2.006;2023-03-16T03:24:44;100019.84;;;8.78;100.00
66668;BME280;57205;51.438;-2.006;2023-03-16T03:27:09;100014.78;;;8.76;100.00
66668;BME280;57205;51.438;-2.006;2023-03-16T03:29:35;100008.38;;;8.77;100.00
66668;BME280;57205;51.438;-2.006;2023-03-16T03:32:01;100011.56;;;8.74;100.00
66668;BME280;57205;51.438;-2.006;2023-03-16T03:34:27;100002.78;;;8.74;100.00
66668;BME280;57205;51.438;-2.006;2023-03-16T03:36:52;100001.97;;;8.73;100.00
66668;BME280;57205;51.438;-2.006;2023-03-16T03:39:17;100000.09;;;8.74;100.00
66668;BME280;57205;51.438;-2.006;2023-03-16T03:41:43;100000.91;;;8.74;100.00
66668;BME280;57205;51.438;-2.006;2023-03-16T03:44:08;99995.03;;;8.77;100.00
66668;BME280;57205;51.438;-2.006;2023-03-16T03:46:33;100000.38;;;8.77;100.00
66668;BME280;57205;51.438;-2.006;2023-03-16T03:48:58;99988.88;;;8.77;100.00
66668;BME280;57205;51.438;-2.006;2023-03-16T03:51:27;99989.97;;;8.81;100.00
66668;BME280;57205;51.438;-2.006;2023-03-16T03:53:53;99981.69;;;8.82;100.00
66668;BME280;57205;51.438;-2.006;2023-03-16T03:56:18;99979.00;;;8.82;100.00
66668;BME280;57205;51.438;-2.006;2023-03-16T03:58:43;99980.09;;;8.81;100.00
66668;BME280;57205;51.438;-2.006;2023-03-16T04:01:08;99977.69;;;8.80;100.00
66668;BME280;57205;51.438;-2.006;2023-03-16T04:03:34;99977.69;;;8.80;100.00
66668;BME280;57205;51.438;-2.006;2023-03-16T04:05:59;99987.03;;;8.82;100.00
66668;BME280;57205;51.438;-2.006;2023-03-16T04:08:24;99979.28;;;8.81;100.00
66668;BME280;57205;51.438;-2.006;2023-03-16T04:10:50;99973.94;;;8.81;100.00
66668;BME280;57205;51.438;-2.006;2023-03-16T04:13:15;99971.00;;;8.82;100.00
66668;BME280;57205;51.438;-2.006;2023-03-16T04:15:40;99968.88;;;8.84;100.00
66668;BME280;57205;51.438;-2.006;2023-03-16T04:18:05;99969.41;;;8.86;100.00
66668;BME280;57205;51.438;-2.006;2023-03-16T04:20:31;99965.69;;;8.82;100.00
66668;BME280;57205;51.438;-2.006;2023-03-16T04:22:56;99974.22;;;8.84;100.00
66668;BME280;57205;51.438;-2.006;2023-03-16T04:25:25;99963.00;;;8.82;100.00
66668;BME280;57205;51.438;-2.006;2023-03-16T04:27:51;99967.03;;;8.85;100.00
66668;BME280;57205;51.438;-2.006;2023-03-16T04:30:16;99960.88;;;8.84;100.00
66668;BME280;57205;51.438;-2.006;2023-03-16T04:32:41;99958.22;;;8.84;100.00
66668;BME280;57205;51.438;-2.006;2023-03-16T04:35:07;99964.59;;;8.88;100.00
66668;BME280;57205;51.438;-2.006;2023-03-16T04:37:32;99954.50;;;8.85;100.00
66668;BME280;57205;51.438;-2.006;2023-03-16T04:39:58;99948.91;;;8.82;100.00
66668;BME280;57205;51.438;-2.006;2023-03-16T04:42:24;99952.88;;;8.84;100.00
66668;BME280;57205;51.438;-2.006;2023-03-16T04:44:49;99951.28;;;8.83;100.00
66668;BME280;57205;51.438;-2.006;2023-03-16T04:47:15;99954.50;;;8.85;100.00
66668;BME280;57205;51.438;-2.006;2023-03-16T04:49:41;99945.94;;;8.83;100.00
66668;BME280;57205;51.438;-2.006;2023-03-16T04:52:06;99949.16;;;8.85;100.00
66668;BME280;57205;51.438;-2.006;2023-03-16T04:54:32;99953.41;;;8.86;100.00
66668;BME280;57205;51.438;-2.006;2023-03-16T04:56:57;99940.59;;;8.88;100.00
66668;BME280;57205;51.438;-2.006;2023-03-16T04:59:24;99942.22;;;8.90;100.00
66668;BME280;57205;51.438;-2.006;2023-03-16T05:01:49;99941.66;;;8.93;100.00
66668;BME280;57205;51.438;-2.006;2023-03-16T05:04:15;99940.09;;;8.92;100.00
66668;BME280;57205;51.438;-2.006;2023-03-16T05:06:40;99929.66;;;8.90;100.00
66668;BME280;57205;51.438;-2.006;2023-03-16T05:09:06;99925.69;;;8.88;100.00
66668;BME280;57205;51.438;-2.006;2023-03-16T05:11:33;99921.41;;;8.92;100.00
66668;BME280;57205;51.438;-2.006;2023-03-16T05:13:58;99922.72;;;8.89;100.00
66668;BME280;57205;51.438;-2.006;2023-03-16T05:16:23;99923.53;;;8.90;100.00
66668;BME280;57205;51.438;-2.006;2023-03-16T05:18:48;99925.41;;;8.89;100.00
66668;BME280;57205;51.438;-2.006;2023-03-16T05:21:14;99919.78;;;8.91;100.00
66668;BME280;57205;51.438;-2.006;2023-03-16T05:23:40;99922.47;;;8.91;100.00
66668;BME280;57205;51.438;-2.006;2023-03-16T05:26:05;99920.06;;;8.94;100.00
66668;BME280;57205;51.438;-2.006;2023-03-16T05:28:31;99909.94;;;8.91;100.00
66668;BME280;57205;51.438;-2.006;2023-03-16T05:30:56;99907.78;;;8.93;100.00
66668;BME280;57205;51.438;-2.006;2023-03-16T05:33:22;99915.53;;;8.95;100.00
66668;BME280;57205;51.438;-2.006;2023-03-16T05:35:47;99906.44;;;8.96;100.00
66668;BME280;57205;51.438;-2.006;2023-03-16T05:38:12;99921.94;;;8.94;100.00
66668;BME280;57205;51.438;-2.006;2023-03-16T05:40:37;99916.31;;;8.95;100.00
66668;BME280;57205;51.438;-2.006;2023-03-16T05:43:03;99924.34;;;8.95;100.00
66668;BME280;57205;51.438;-2.006;2023-03-16T05:45:28;99926.19;;;8.95;100.00
66668;BME280;57205;51.438;-2.006;2023-03-16T05:47:53;99923.25;;;8.96;100.00
66668;BME280;57205;51.438;-2.006;2023-03-16T05:50:19;99932.34;;;8.95;100.00
66668;BME280;57205;51.438;-2.006;2023-03-16T05:52:44;99930.19;;;8.92;100.00
66668;BME280;57205;51.438;-2.006;2023-03-16T05:55:10;99927.78;;;8.91;100.00
66668;BME280;57205;51.438;-2.006;2023-03-16T05:57:36;99916.59;;;8.88;100.00
66668;BME280;57205;51.438;-2.006;2023-03-16T06:00:02;99919.78;;;8.91;100.00
66668;BME280;57205;51.438;-2.006;2023-03-16T06:02:37;99918.75;;;8.92;100.00
66668;BME280;57205;51.438;-2.006;2023-03-16T06:05:02;99909.13;;;8.91;100.00
66668;BME280;57205;51.438;-2.006;2023-03-16T06:07:28;99909.66;;;8.93;100.00
66668;BME280;57205;51.438;-2.006;2023-03-16T06:09:53;99909.13;;;8.91;100.00
66668;BME280;57205;51.438;-2.006;2023-03-16T06:12:18;99892.59;;;8.88;100.00
66668;BME280;57205;51.438;-2.006;2023-03-16T06:14:43;99893.38;;;8.89;100.00
66668;BME280;57205;51.438;-2.006;2023-03-16T06:17:09;99880.31;;;8.88;100.00
66668;BME280;57205;51.438;-2.006;2023-03-16T06:19:34;99871.53;;;8.87;100.00
66668;BME280;57205;51.438;-2.006;2023-03-16T06:21:59;99881.63;;;8.90;100.00
66668;BME280;57205;51.438;-2.006;2023-03-16T06:24:24;99881.63;;;8.90;100.00
66668;BME280;57205;51.438;-2.006;2023-03-16T06:26:50;99884.06;;;8.92;100.00
66668;BME280;57205;51.438;-2.006;2023-03-16T06:29:15;99880.31;;;8.88;100.00
66668;BME280;57205;51.438;-2.006;2023-03-16T06:31:40;99879.25;;;8.88;100.00
66668;BME280;57205;51.438;-2.006;2023-03-16T06:34:06;99871.78;;;8.91;100.00
66668;BME280;57205;51.438;-2.006;2023-03-16T06:36:31;99877.63;;;8.93;100.00
66668;BME280;57205;51.438;-2.006;2023-03-16T06:38:58;99869.63;;;8.93;100.00
66668;BME280;57205;51.438;-2.006;2023-03-16T06:41:23;99873.38;;;8.92;100.00
66668;BME280;57205;51.438;-2.006;2023-03-16T06:43:48;99864.81;;;8.95;100.00
66668;BME280;57205;51.438;-2.006;2023-03-16T06:46:13;99862.16;;;8.95;100.00
66668;BME280;57205;51.438;-2.006;2023-03-16T06:48:39;99868.56;;;8.94;100.00
66668;BME280;57205;51.438;-2.006;2023-03-16T06:51:04;99865.38;;;8.92;100.00
66668;BME280;57205;51.438;-2.006;2023-03-16T06:53:31;99876.06;;;8.92;100.00
66668;BME280;57205;51.438;-2.006;2023-03-16T06:55:56;99866.44;;;8.91;100.00
66668;BME280;57205;51.438;-2.006;2023-03-16T06:58:22;99870.69;;;8.97;100.00
66668;BME280;57205;51.438;-2.006;2023-03-16T07:00:47;99865.34;;;8.97;100.00
66668;BME280;57205;51.438;-2.006;2023-03-16T07:03:12;99866.69;;;8.99;100.00
66668;BME280;57205;51.438;-2.006;2023-03-16T07:05:37;99876.28;;;9.00;100.00
66668;BME280;57205;51.438;-2.006;2023-03-16T07:08:03;99873.06;;;9.03;100.00
66668;BME280;57205;51.438;-2.006;2023-03-16T07:10:28;99878.69;;;9.02;100.00
66668;BME280;57205;51.438;-2.006;2023-03-16T07:12:54;99881.34;;;9.02;100.00
66668;BME280;57205;51.438;-2.006;2023-03-16T07:15:19;99882.97;;;9.03;100.00
66668;BME280;57205;51.438;-2.006;2023-03-16T07:17:45;99882.66;;;9.09;100.00
66668;BME280;57205;51.438;-2.006;2023-03-16T07:20:11;99889.31;;;9.12;100.00
66668;BME280;57205;51.438;-2.006;2023-03-16T07:22:37;99878.63;;;9.17;100.00
66668;BME280;57205;51.438;-2.006;2023-03-16T07:25:03;99880.75;;;9.20;100.00
66668;BME280;57205;51.438;-2.006;2023-03-16T07:27:28;99885.56;;;9.18;100.00
66668;BME280;57205;51.438;-2.006;2023-03-16T07:29:54;99888.25;;;9.18;100.00
66668;BME280;57205;51.438;-2.006;2023-03-16T07:32:19;99890.38;;;9.21;100.00
66668;BME280;57205;51.438;-2.006;2023-03-16T07:34:44;99890.88;;;9.23;100.00
66668;BME280;57205;51.438;-2.006;2023-03-16T07:37:10;99882.88;;;9.23;100.00
66668;BME280;57205;51.438;-2.006;2023-03-16T07:39:35;99887.66;;;9.26;100.00
66668;BME280;57205;51.438;-2.006;2023-03-16T07:42:01;99894.34;;;9.28;100.00
66668;BME280;57205;51.438;-2.006;2023-03-16T07:44:26;99895.91;;;9.29;100.00
66668;BME280;57205;51.438;-2.006;2023-03-16T07:46:52;99899.94;;;9.32;100.00
66668;BME280;57205;51.438;-2.006;2023-03-16T07:49:17;99891.63;;;9.33;100.00
66668;BME280;57205;51.438;-2.006;2023-03-16T07:51:42;99896.69;;;9.35;100.00
66668;BME280;57205;51.438;-2.006;2023-03-16T07:54:08;99891.34;;;9.40;100.00
66668;BME280;57205;51.438;-2.006;2023-03-16T07:56:33;99885.19;;;9.44;100.00
66668;BME280;57205;51.438;-2.006;2023-03-16T07:58:58;99871.31;;;9.47;100.00
66668;BME280;57205;51.438;-2.006;2023-03-16T08:01:24;99886.75;;;9.50;100.00
66668;BME280;57205;51.438;-2.006;2023-03-16T08:03:49;99887.28;;;9.52;100.00
66668;BME280;57205;51.438;-2.006;2023-03-16T08:06:14;99891.53;;;9.53;100.00
66668;BME280;57205;51.438;-2.006;2023-03-16T08:08:39;99896.88;;;9.53;100.00
66668;BME280;57205;51.438;-2.006;2023-03-16T08:11:05;99891.53;;;9.53;100.00
66668;BME280;57205;51.438;-2.006;2023-03-16T08:13:30;99884.63;;;9.52;100.00
66668;BME280;57205;51.438;-2.006;2023-03-16T08:15:55;99876.31;;;9.54;100.00
66668;BME280;57205;51.438;-2.006;2023-03-16T08:18:26;99873.66;;;9.54;100.00
66668;BME280;57205;51.438;-2.006;2023-03-16T08:20:51;99875.50;;;9.58;100.00
66668;BME280;57205;51.438;-2.006;2023-03-16T08:23:17;99878.16;;;9.63;100.00
66668;BME280;57205;51.438;-2.006;2023-03-16T08:25:42;99883.47;;;9.68;100.00
66668;BME280;57205;51.438;-2.006;2023-03-16T08:28:08;99880.50;;;9.70;100.00
66668;BME280;57205;51.438;-2.006;2023-03-16T08:30:33;99887.47;;;9.71;100.00
66668;BME280;57205;51.438;-2.006;2023-03-16T08:32:59;99879.72;;;9.69;100.00
66668;BME280;57205;51.438;-2.006;2023-03-16T08:35:25;99891.47;;;9.68;100.00
66668;BME280;57205;51.438;-2.006;2023-03-16T08:37:52;99889.03;;;9.72;100.00
66668;BME280;57205;51.438;-2.006;2023-03-16T08:40:18;99887.97;;;9.73;100.00
66668;BME280;57205;51.438;-2.006;2023-03-16T08:42:46;99890.66;;;9.73;100.00
66668;BME280;57205;51.438;-2.006;2023-03-16T08:45:14;99901.59;;;9.76;100.00
66668;BME280;57205;51.438;-2.006;2023-03-16T08:47:39;99895.97;;;9.78;100.00
66668;BME280;57205;51.438;-2.006;2023-03-16T08:50:05;99892.72;;;9.81;100.00
66668;BME280;57205;51.438;-2.006;2023-03-16T08:52:31;99899.69;;;9.82;100.00
66668;BME280;57205;51.438;-2.006;2023-03-16T08:54:57;99897.00;;;9.82;100.00
66668;BME280;57205;51.438;-2.006;2023-03-16T08:57:23;99902.38;;;9.77;100.00
66668;BME280;57205;51.438;-2.006;2023-03-16T08:59:49;99905.03;;;9.82;100.00
66668;BME280;57205;51.438;-2.006;2023-03-16T09:02:15;99908.25;;;9.79;100.00
66668;BME280;57205;51.438;-2.006;2023-03-16T09:04:41;99911.72;;;9.79;100.00
66668;BME280;57205;51.438;-2.006;2023-03-16T09:07:06;99903.16;;;9.82;100.00
66668;BME280;57205;51.438;-2.006;2023-03-16T09:09:32;99900.25;;;9.79;100.00
66668;BME280;57205;51.438;-2.006;2023-03-16T09:11:58;99897.28;;;9.80;100.00
66668;BME280;57205;51.438;-2.006;2023-03-16T09:14:24;99896.97;;;9.87;100.00
66668;BME280;57205;51.438;-2.006;2023-03-16T09:16:49;99889.72;;;9.93;100.00
66668;BME280;57205;51.438;-2.006;2023-03-16T09:19:14;99881.69;;;9.98;100.00
66668;BME280;57205;51.438;-2.006;2023-03-16T09:21:40;99877.63;;;10.00;100.00
66668;BME280;57205;51.438;-2.006;2023-03-16T09:24:06;99877.34;;;10.07;100.00
66668;BME280;57205;51.438;-2.006;2023-03-16T09:26:33;99877.34;;;10.07;100.00
66668;BME280;57205;51.438;-2.006;2023-03-16T09:28:59;99876.81;;;10.05;100.00
66668;BME280;57205;51.438;-2.006;2023-03-16T09:31:24;99870.09;;;10.07;100.00
66668;BME280;57205;51.438;-2.006;2023-03-16T09:33:50;99874.94;;;10.10;100.00
66668;BME280;57205;51.438;-2.006;2023-03-16T09:36:16;99873.56;;;10.13;100.00
66668;BME280;57205;51.438;-2.006;2023-03-16T09:38:42;99868.47;;;10.16;100.00
66668;BME280;57205;51.438;-2.006;2023-03-16T09:48:42;99857.63;;;10.36;100.00
66668;BME280;57205;51.438;-2.006;2023-03-16T09:51:50;99856.91;;;10.54;100.00
66668;BME280;57205;51.438;-2.006;2023-03-16T09:53:57;99848.22;;;10.67;100.00
66668;BME280;57205;51.438;-2.006;2023-03-16T09:56:29;99830.53;;;10.71;100.00
66668;BME280;57205;51.438;-2.006;2023-03-16T09:58:57;99827.25;;;10.74;100.00
66668;BME280;57205;51.438;-2.006;2023-03-16T10:01:27;99819.97;;;10.80;100.00
66668;BME280;57205;51.438;-2.006;2023-03-16T10:06:23;99822.25;;;10.92;100.00
66668;BME280;57205;51.438;-2.006;2023-03-16T10:09:02;99821.41;;;10.96;100.00
66668;BME280;57205;51.438;-2.006;2023-03-16T10:11:32;99810.72;;;10.96;100.00
66668;BME280;57205;51.438;-2.006;2023-03-16T10:14:08;99816.28;;;11.00;100.00
66668;BME280;57205;51.438;-2.006;2023-03-16T10:16:51;99826.41;;;11.03;100.00
66668;BME280;57205;51.438;-2.006;2023-03-16T10:21:47;99817.56;;;11.02;100.00
66668;BME280;57205;51.438;-2.006;2023-03-16T10:24:36;99816.22;;;11.05;100.00
66668;BME280;57205;51.438;-2.006;2023-03-16T10:27:02;99823.44;;;11.04;100.00
66668;BME280;57205;51.438;-2.006;2023-03-16T10:29:29;99824.25;;;11.05;100.00
66668;BME280;57205;51.438;-2.006;2023-03-16T10:32:00;99820.47;;;11.06;100.00
66668;BME280;57205;51.438;-2.006;2023-03-16T10:34:26;99807.09;;;11.06;100.00
66668;BME280;57205;51.438;-2.006;2023-03-16T10:36:52;99802.44;;;11.16;100.00
66668;BME280;57205;51.438;-2.006;2023-03-16T10:39:18;99806.28;;;11.29;100.00
66668;BME280;57205;51.438;-2.006;2023-03-16T10:41:45;99808.16;;;11.47;100.00
66668;BME280;57205;51.438;-2.006;2023-03-16T10:46:41;99807.88;;;11.67;100.00
66668;BME280;57205;51.438;-2.006;2023-03-16T10:51:55;99789.06;;;12.04;100.00
66668;BME280;57205;51.438;-2.006;2023-03-16T10:56:53;99788.59;;;12.48;100.00
66668;BME280;57205;51.438;-2.006;2023-03-16T10:59:30;99787.31;;;12.59;100.00
66668;BME280;57205;51.438;-2.006;2023-03-16T11:01:57;99788.09;;;12.73;100.00
66668;BME280;57205;51.438;-2.006;2023-03-16T11:04:23;99784.22;;;12.79;100.00
66668;BME280;57205;51.438;-2.006;2023-03-16T11:06:54;99782.34;;;12.80;100.00
66668;BME280;57205;51.438;-2.006;2023-03-16T11:09:21;99784.53;;;12.91;100.00
66668;BME280;57205;51.438;-2.006;2023-03-16T11:11:48;99781.94;;;13.00;100.00
66668;BME280;57205;51.438;-2.006;2023-03-16T11:14:14;99774.16;;;13.12;100.00
66668;BME280;57205;51.438;-2.006;2023-03-16T11:16:44;99773.66;;;13.23;100.00
66668;BME280;57205;51.438;-2.006;2023-03-16T11:19:20;99782.03;;;13.22;100.00
66668;BME280;57205;51.438;-2.006;2023-03-16T11:24:21;99774.28;;;13.07;100.00
66668;BME280;57205;51.438;-2.006;2023-03-16T11:26:48;99772.38;;;12.94;100.00
66668;BME280;57205;51.438;-2.006;2023-03-16T11:29:19;99759.69;;;12.72;100.00
66668;BME280;57205;51.438;-2.006;2023-03-16T11:31:49;99757.78;;;12.72;100.00
66668;BME280;57205;51.438;-2.006;2023-03-16T11:34:18;99761.56;;;12.71;100.00
66668;BME280;57205;51.438;-2.006;2023-03-16T11:36:54;99758.19;;;12.66;100.00
66668;BME280;57205;51.438;-2.006;2023-03-16T11:50:00;99759.97;;;12.70;100.00
66668;BME280;57205;51.438;-2.006;2023-03-16T11:57:51;99735.81;;;12.70;100.00
66668;BME280;57205;51.438;-2.006;2023-03-16T12:05:22;99729.56;;;12.61;100.00
66668;BME280;57205;51.438;-2.006;2023-03-16T12:08:15;99722.59;;;12.60;100.00
66668;BME280;57205;51.438;-2.006;2023-03-16T12:13:32;99723.00;;;12.54;100.00
66668;BME280;57205;51.438;-2.006;2023-03-16T12:16:01;99724.69;;;12.50;100.00
66668;BME280;57205;51.438;-2.006;2023-03-16T12:21:14;99708.38;;;12.33;100.00
66668;BME280;57205;51.438;-2.006;2023-03-16T12:23:52;99721.97;;;12.23;100.00
66668;BME280;57205;51.438;-2.006;2023-03-16T12:26:19;99717.22;;;12.20;100.00
66668;BME280;57205;51.438;-2.006;2023-03-16T12:28:46;99725.84;;;12.17;100.00
66668;BME280;57205;51.438;-2.006;2023-03-16T12:33:58;99727.03;;;12.11;100.00
66668;BME280;57205;51.438;-2.006;2023-03-16T12:39:01;99724.53;;;12.01;100.00
66668;BME280;57205;51.438;-2.006;2023-03-16T12:44:03;99723.03;;;11.95;100.00
66668;BME280;57205;51.438;-2.006;2023-03-16T12:46:38;99710.91;;;11.97;100.00
66668;BME280;57205;51.438;-2.006;2023-03-16T12:49:06;99702.78;;;12.02;100.00
66668;BME280;57205;51.438;-2.006;2023-03-16T12:53:59;99709.63;;;12.08;100.00
66668;BME280;57205;51.438;-2.006;2023-03-16T12:56:33;99697.44;;;12.16;100.00
66668;BME280;57205;51.438;-2.006;2023-03-16T12:59:00;99700.63;;;12.18;100.00
66668;BME280;57205;51.438;-2.006;2023-03-16T13:01:27;99691.50;;;12.19;100.00
66668;BME280;57205;51.438;-2.006;2023-03-16T13:04:00;99675.41;;;12.19;100.00
66668;BME280;57205;51.438;-2.006;2023-03-16T13:06:30;99679.47;;;12.30;100.00
66668;BME280;57205;51.438;-2.006;2023-03-16T13:08:56;99684.94;;;12.38;100.00
66668;BME280;57205;51.438;-2.006;2023-03-16T13:11:23;99676.28;;;12.41;100.00
66668;BME280;57205;51.438;-2.006;2023-03-16T13:13:51;99674.41;;;12.42;100.00
66668;BME280;57205;51.438;-2.006;2023-03-16T13:16:49;99668.84;;;12.52;100.00
66668;BME280;57205;51.438;-2.006;2023-03-16T13:21:43;99656.19;;;12.52;100.00
66668;BME280;57205;51.438;-2.006;2023-03-16T13:26:57;99657.69;;;12.45;100.00
66668;BME280;57205;51.438;-2.006;2023-03-16T13:31:52;99651.06;;;12.42;100.00
66668;BME280;57205;51.438;-2.006;2023-03-16T13:36:52;99634.53;;;12.49;100.00
66668;BME280;57205;51.438;-2.006;2023-03-16T13:39:19;99634.63;;;12.57;100.00
66668;BME280;57205;51.438;-2.006;2023-03-16T13:42:28;99632.84;;;12.66;100.00
66668;BME280;57205;51.438;-2.006;2023-03-16T13:44:37;99621.66;;;12.73;100.00
66668;BME280;57205;51.438;-2.006;2023-03-16T13:47:03;99620.28;;;12.75;100.00
66668;BME280;57205;51.438;-2.006;2023-03-16T13:49:29;99633.88;;;12.79;100.00
66668;BME280;57205;51.438;-2.006;2023-03-16T13:51:54;99634.56;;;12.85;100.00
66668;BME280;57205;51.438;-2.006;2023-03-16T13:54:25;99636.56;;;12.79;100.00
66668;BME280;57205;51.438;-2.006;2023-03-16T13:56:52;99643.13;;;12.73;100.00
66668;BME280;57205;51.438;-2.006;2023-03-16T13:59:19;99652.31;;;12.72;100.00
66668;BME280;57205;51.438;-2.006;2023-03-16T14:01:46;99646.75;;;12.68;100.00
66668;BME280;57205;51.438;-2.006;2023-03-16T14:04:13;99633.63;;;12.67;100.00